Antioch, California
Current Conditions -  °F | °C
As of 8:00 AM on Saturday 22 Nov 2014 (Local Time) from KCCR Reporting Station
Haze Haze  
Wind Chill: 59°   Ceiling: 2300
Heat Index: 59°   Visibility: 6mi
Dew Point: 56°   Wind: 13mph
Humidity: 90%   Direction: 180°S
Pressure: 30.05"   Gusts: NA
Location:  38.02°N, 121.81°W
Report Text: KCCR 221600Z 18011KT 6SM BR BKN023 OVC031 15/13 A3005 RMK AO2 T01500133
Loading
Personal Weather Stations






























Interactive Weather Map New forecast layout! Learn more

10-Day Weather Forecast

Advertisements
Track Severe Weather on mobile